Time;durP1;ratioP1;P1;durP2;ratioP2;P2;SDS_P1;SDS_P2;PMS_P1;PMS_P2;Temp;Humidity;BMP_temperature;BMP_pressure;BME280_temperature;BME280_humidity;BME280_pressure;Samples;Min_cycle;Max_cycle;Signal;HPM_P1;HPM_P2
2023/01/24 00:00:18;;;;;;;;;;;19.00;41.40;;;;;;5012809;28;19925;-60
2023/01/24 00:02:44;;;;;;;;;;;19.00;41.40;;;;;;5012125;28;19988;-61
2023/01/24 00:05:11;;;;;;;;;;;19.00;41.40;;;;;;5012883;28;19948;-59
2023/01/24 00:07:38;;;;;;;;;;;19.00;41.30;;;;;;5011009;28;19926;-62
2023/01/24 00:10:06;;;;;;;;;;;19.00;41.40;;;;;;5012398;28;19929;-60
2023/01/24 00:12:34;;;;;;;;;;;19.00;41.40;;;;;;5006453;28;20027;-60
2023/01/24 00:15:01;;;;;;;;;;;19.00;41.30;;;;;;5012450;28;19929;-61
2023/01/24 00:17:27;;;;;;;;;;;19.00;41.30;;;;;;5020672;28;19921;-61
2023/01/24 00:19:54;;;;;;;;;;;19.00;41.30;;;;;;5012298;28;19997;-59
2023/01/24 00:22:21;;;;;;;;;;;18.90;41.30;;;;;;5011657;28;19979;-59
2023/01/24 00:24:48;;;;;;;;;;;18.90;41.30;;;;;;5008518;28;19981;-60
2023/01/24 00:27:15;;;;;;;;;;;18.90;41.80;;;;;;5018585;28;19945;-59
2023/01/24 00:29:43;;;;;;;;;;;18.90;41.30;;;;;;5012423;28;19960;-59
2023/01/24 00:32:10;;;;;;;;;;;18.90;41.20;;;;;;5010519;28;19932;-61
2023/01/24 00:34:37;;;;;;;;;;;18.90;41.30;;;;;;5025805;28;19921;-61
2023/01/24 00:37:03;;;;;;;;;;;18.90;41.20;;;;;;5012201;28;19968;-60
2023/01/24 00:39:30;;;;;;;;;;;18.90;41.20;;;;;;5012047;28;19936;-61
2023/01/24 00:41:57;;;;;;;;;;;18.90;41.80;;;;;;5019380;28;19922;-60
2023/01/24 00:44:24;;;;;;;;;;;18.90;41.20;;;;;;5012048;28;19921;-60
2023/01/24 00:46:53;;;;;;;;;;;18.90;41.20;;;;;;5002137;28;20439;-61
2023/01/24 00:49:19;;;;;;;;;;;18.90;41.20;;;;;;5012160;28;19941;-60
2023/01/24 00:51:46;;;;;;;;;;;18.90;41.20;;;;;;5012245;28;19928;-60
2023/01/24 00:54:13;;;;;;;;;;;18.90;41.20;;;;;;5011363;28;19975;-60
2023/01/24 00:56:39;;;;;;;;;;;18.90;41.20;;;;;;5012468;28;19937;-61
2023/01/24 00:59:06;;;;;;;;;;;18.90;41.20;;;;;;5011541;28;19948;-60
2023/01/24 01:01:33;;;;;;;;;;;18.90;41.20;;;;;;5011247;28;19952;-60
2023/01/24 01:04:02;;;;;;;;;;;18.90;41.20;;;;;;5019561;28;19937;-61
2023/01/24 01:06:28;;;;;;;;;;;18.90;41.20;;;;;;4991795;28;19925;-60
2023/01/24 01:08:55;;;;;;;;;;;18.90;41.20;;;;;;5024500;28;20408;-60
2023/01/24 01:11:22;;;;;;;;;;;18.90;41.20;;;;;;5012315;28;20435;-61
2023/01/24 01:13:49;;;;;;;;;;;18.90;41.20;;;;;;5009888;28;19922;-61
2023/01/24 01:16:17;;;;;;;;;;;18.90;41.20;;;;;;5010880;28;19925;-60
2023/01/24 01:18:44;;;;;;;;;;;18.90;41.20;;;;;;5009179;28;19922;-62
2023/01/24 01:21:13;;;;;;;;;;;18.90;41.10;;;;;;5010136;28;20115;-62
2023/01/24 01:23:40;;;;;;;;;;;18.90;41.10;;;;;;5010768;28;20379;-60
2023/01/24 01:26:07;;;;;;;;;;;18.90;41.20;;;;;;5022823;28;19922;-60
2023/01/24 01:28:34;;;;;;;;;;;18.90;41.10;;;;;;5010715;28;19983;-60
2023/01/24 01:31:00;;;;;;;;;;;18.90;41.10;;;;;;5008625;28;19922;-61
2023/01/24 01:33:27;;;;;;;;;;;18.90;41.10;;;;;;5011906;28;19921;-59
2023/01/24 01:35:54;;;;;;;;;;;18.90;41.10;;;;;;5010809;28;19968;-61
2023/01/24 01:38:24;;;;;;;;;;;18.90;41.10;;;;;;5010942;28;19941;-61
2023/01/24 01:40:51;;;;;;;;;;;18.90;41.10;;;;;;5012819;28;19925;-62
2023/01/24 01:43:18;;;;;;;;;;;18.90;41.10;;;;;;5011664;28;19925;-60
2023/01/24 01:45:45;;;;;;;;;;;18.90;41.10;;;;;;5011258;28;19922;-61
2023/01/24 01:48:13;;;;;;;;;;;18.90;41.10;;;;;;5009735;28;19921;-60
2023/01/24 01:50:40;;;;;;;;;;;18.90;41.10;;;;;;5012271;28;19979;-60
2023/01/24 01:53:07;;;;;;;;;;;18.90;41.10;;;;;;5023287;28;20363;-61
2023/01/24 01:55:36;;;;;;;;;;;18.90;41.10;;;;;;5010891;28;19987;-60
2023/01/24 01:58:04;;;;;;;;;;;18.90;41.10;;;;;;5004610;28;19921;-63
2023/01/24 02:00:31;;;;;;;;;;;18.90;41.10;;;;;;5025795;28;19922;-60
2023/01/24 02:06:05;;;;;;;;;;;18.90;41.10;;;;;;5311628;23;19922;-59
2023/01/24 02:08:33;;;;;;;;;;;18.90;41.10;;;;;;4994591;28;19954;-59
2023/01/24 02:13:45;;;;;;;;;;;18.80;41.00;;;;;;5009307;28;19926;-59
2023/01/24 02:16:10;;;;;;;;;;;18.90;41.10;;;;;;4992874;28;20025;-59
2023/01/24 02:18:38;;;;;;;;;;;18.90;41.10;;;;;;4992675;28;19946;-59
2023/01/24 02:21:05;;;;;;;;;;;18.90;41.10;;;;;;4994499;28;19969;-59
2023/01/24 02:23:33;;;;;;;;;;;18.90;41.00;;;;;;4993401;28;19977;-59
2023/01/24 02:26:04;;;;;;;;;;;18.90;41.00;;;;;;5011732;28;19922;-59
2023/01/24 02:28:31;;;;;;;;;;;18.90;41.00;;;;;;4993958;28;19921;-59
2023/01/24 02:30:58;;;;;;;;;;;18.90;41.00;;;;;;5008480;28;19925;-59
2023/01/24 02:33:25;;;;;;;;;;;18.90;41.00;;;;;;4994358;28;19922;-59
2023/01/24 02:35:51;;;;;;;;;;;18.80;41.00;;;;;;4992367;28;19972;-59
2023/01/24 02:38:20;;;;;;;;;;;18.80;40.90;;;;;;5008520;28;20364;-59
2023/01/24 02:40:46;;;;;;;;;;;18.80;40.90;;;;;;5025370;28;19992;-59
2023/01/24 02:43:15;;;;;;;;;;;18.80;40.90;;;;;;5013116;28;19984;-60
2023/01/24 02:45:41;;;;;;;;;;;18.80;40.90;;;;;;5013200;28;19932;-59
2023/01/24 02:48:08;;;;;;;;;;;18.80;40.90;;;;;;5008089;28;19925;-59
2023/01/24 02:53:31;;;;;;;;;;;18.80;40.90;;;;;;4993109;28;19922;-59
2023/01/24 02:58:43;;;;;;;;;;;18.80;40.90;;;;;;5007824;28;19929;-58
2023/01/24 03:01:10;;;;;;;;;;;18.80;40.90;;;;;;5025423;28;19964;-58
2023/01/24 03:03:36;;;;;;;;;;;18.80;40.90;;;;;;4993628;28;19926;-58
2023/01/24 03:06:03;;;;;;;;;;;18.80;40.90;;;;;;4994887;28;20357;-58
2023/01/24 03:08:31;;;;;;;;;;;18.80;40.90;;;;;;5007871;28;20258;-58
2023/01/24 03:10:57;;;;;;;;;;;18.80;40.90;;;;;;4992437;28;19925;-58
2023/01/24 03:35:21;;;;;;;;;;;18.80;40.90;;;;;;4991894;28;19928;-60
2023/01/24 03:40:32;;;;;;;;;;;18.80;40.80;;;;;;4993403;28;19929;-59
2023/01/24 03:42:59;;;;;;;;;;;18.80;40.90;;;;;;4989740;28;19968;-60
2023/01/24 03:45:26;;;;;;;;;;;18.80;40.90;;;;;;4992498;28;20360;-59
2023/01/24 03:47:58;;;;;;;;;;;18.80;40.90;;;;;;5009530;28;19921;-60
2023/01/24 03:53:09;;;;;;;;;;;18.80;40.90;;;;;;5004992;28;20008;-60
2023/01/24 03:55:36;;;;;;;;;;;18.80;40.90;;;;;;5009731;28;19930;-60
2023/01/24 03:58:03;;;;;;;;;;;18.80;40.80;;;;;;5005430;28;19929;-60
2023/01/24 04:00:30;;;;;;;;;;;18.80;40.80;;;;;;4992347;28;19968;-59
2023/01/24 04:02:58;;;;;;;;;;;18.80;40.80;;;;;;5007469;28;19922;-59
2023/01/24 04:05:25;;;;;;;;;;;18.80;40.80;;;;;;4994461;28;19926;-59
2023/01/24 04:07:51;;;;;;;;;;;18.80;40.80;;;;;;5002034;28;19928;-60
2023/01/24 04:10:18;;;;;;;;;;;18.80;40.80;;;;;;5028979;28;19933;-60
2023/01/24 04:12:45;;;;;;;;;;;18.80;40.80;;;;;;5003592;28;19992;-60
2023/01/24 04:15:14;;;;;;;;;;;18.80;40.80;;;;;;5009230;28;19921;-60
2023/01/24 04:17:41;;;;;;;;;;;18.80;40.80;;;;;;4991317;28;19930;-59
2023/01/24 04:20:11;;;;;;;;;;;18.80;40.80;;;;;;4991074;28;20010;-60
2023/01/24 04:22:38;;;;;;;;;;;18.80;40.80;;;;;;5007319;28;19965;-59
2023/01/24 04:25:05;;;;;;;;;;;18.80;40.80;;;;;;4992994;28;19925;-60
2023/01/24 04:27:31;;;;;;;;;;;18.80;40.80;;;;;;5024036;28;19945;-59
2023/01/24 04:29:58;;;;;;;;;;;18.80;40.80;;;;;;5009104;28;19961;-59
2023/01/24 04:32:25;;;;;;;;;;;18.80;40.80;;;;;;4992500;28;19972;-59
2023/01/24 04:34:52;;;;;;;;;;;18.80;41.40;;;;;;5000211;28;19921;-59
2023/01/24 04:37:20;;;;;;;;;;;18.80;40.80;;;;;;5010948;28;19926;-59
2023/01/24 04:39:47;;;;;;;;;;;18.80;40.80;;;;;;5002573;28;19957;-59
2023/01/24 04:42:14;;;;;;;;;;;18.80;40.80;;;;;;4993280;28;20457;-60
2023/01/24 04:44:40;;;;;;;;;;;18.80;40.80;;;;;;4994904;28;20276;-60
2023/01/24 04:47:07;;;;;;;;;;;18.80;40.80;;;;;;4994123;28;19926;-59
2023/01/24 04:49:34;;;;;;;;;;;18.80;40.80;;;;;;4989341;28;19922;-59
2023/01/24 04:52:01;;;;;;;;;;;18.80;40.80;;;;;;4993166;28;19985;-58
2023/01/24 04:54:29;;;;;;;;;;;18.80;40.80;;;;;;4991417;28;19922;-59
2023/01/24 04:56:56;;;;;;;;;;;18.80;40.80;;;;;;5007043;28;19922;-59
2023/01/24 04:59:22;;;;;;;;;;;18.80;40.70;;;;;;4993635;28;19922;-59
2023/01/24 05:01:49;;;;;;;;;;;18.80;40.80;;;;;;5010505;28;19976;-59
2023/01/24 05:04:16;;;;;;;;;;;18.80;40.70;;;;;;4993942;28;20365;-59
2023/01/24 05:06:43;;;;;;;;;;;18.80;40.70;;;;;;4994871;28;19921;-59
2023/01/24 05:09:09;;;;;;;;;;;18.80;40.70;;;;;;5010448;28;19933;-59
2023/01/24 05:11:37;;;;;;;;;;;18.80;40.70;;;;;;4993685;28;19925;-59
2023/01/24 05:14:04;;;;;;;;;;;18.80;40.80;;;;;;4994318;28;19972;-59
2023/01/24 05:16:31;;;;;;;;;;;18.80;40.70;;;;;;4995046;28;19922;-59
2023/01/24 05:18:58;;;;;;;;;;;18.80;40.80;;;;;;5010753;28;19929;-59
2023/01/24 05:21:25;;;;;;;;;;;18.80;40.70;;;;;;4993978;28;19922;-59
2023/01/24 05:23:52;;;;;;;;;;;18.80;40.70;;;;;;4995134;28;19976;-59
2023/01/24 05:26:19;;;;;;;;;;;18.80;40.70;;;;;;5008882;28;19922;-59
2023/01/24 05:28:47;;;;;;;;;;;18.80;40.70;;;;;;4993752;28;19972;-59
2023/01/24 05:31:14;;;;;;;;;;;18.80;40.70;;;;;;4993645;28;19961;-59
2023/01/24 05:33:41;;;;;;;;;;;18.80;40.70;;;;;;4994227;28;19968;-59
2023/01/24 05:36:09;;;;;;;;;;;18.80;40.70;;;;;;4994339;28;19929;-59
2023/01/24 05:38:35;;;;;;;;;;;18.80;40.70;;;;;;4993384;28;19925;-59
2023/01/24 05:41:03;;;;;;;;;;;18.80;40.70;;;;;;4993592;28;20443;-59
2023/01/24 05:43:30;;;;;;;;;;;18.80;40.70;;;;;;5009208;28;19925;-59
2023/01/24 05:46:01;;;;;;;;;;;18.80;40.70;;;;;;4993706;28;19929;-59
2023/01/24 05:48:28;;;;;;;;;;;18.80;40.70;;;;;;5029322;28;19928;-59
2023/01/24 05:50:58;;;;;;;;;;;18.70;40.60;;;;;;5014686;28;19921;-59
2023/01/24 05:53:25;;;;;;;;;;;18.70;40.60;;;;;;5014296;28;20001;-59
2023/01/24 05:55:55;;;;;;;;;;;18.80;40.70;;;;;;4992600;28;19929;-59
2023/01/24 05:58:22;;;;;;;;;;;18.80;40.70;;;;;;4993075;28;19922;-59
2023/01/24 06:00:49;;;;;;;;;;;18.80;40.60;;;;;;5008062;28;19928;-59
2023/01/24 06:03:17;;;;;;;;;;;18.80;40.60;;;;;;4979133;28;19922;-59
2023/01/24 06:05:46;;;;;;;;;;;18.80;40.60;;;;;;4998658;28;19925;-59
2023/01/24 06:08:12;;;;;;;;;;;18.80;40.70;;;;;;5009748;28;20368;-59
2023/01/24 06:10:39;;;;;;;;;;;18.80;40.60;;;;;;4995155;28;19922;-59
2023/01/24 06:13:06;;;;;;;;;;;18.80;40.60;;;;;;4992788;28;19954;-59
2023/01/24 06:15:33;;;;;;;;;;;18.80;40.60;;;;;;4992138;28;19945;-59
2023/01/24 06:17:59;;;;;;;;;;;18.80;40.60;;;;;;4993455;28;20037;-59
2023/01/24 06:20:29;;;;;;;;;;;18.80;40.60;;;;;;5019068;28;19922;-59
2023/01/24 06:22:57;;;;;;;;;;;18.80;40.60;;;;;;5025928;28;19976;-58
2023/01/24 06:25:24;;;;;;;;;;;18.80;40.60;;;;;;5010308;28;20312;-59
2023/01/24 06:27:51;;;;;;;;;;;18.80;40.60;;;;;;5008572;28;20391;-59
2023/01/24 06:30:18;;;;;;;;;;;18.80;40.60;;;;;;5007885;28;19922;-58
2023/01/24 06:32:50;;;;;;;;;;;18.80;40.60;;;;;;5008614;28;19972;-59
2023/01/24 06:35:18;;;;;;;;;;;18.70;40.50;;;;;;4995868;28;19922;-58
2023/01/24 06:37:47;;;;;;;;;;;18.80;40.60;;;;;;5009095;28;19921;-58
2023/01/24 06:40:14;;;;;;;;;;;18.80;40.60;;;;;;5013524;28;19921;-58
2023/01/24 06:42:42;;;;;;;;;;;18.80;40.60;;;;;;5028344;28;20259;-60
2023/01/24 06:45:10;;;;;;;;;;;18.80;40.60;;;;;;4993005;28;19929;-59
2023/01/24 06:47:36;;;;;;;;;;;18.70;40.60;;;;;;4992279;28;19922;-59
2023/01/24 06:50:04;;;;;;;;;;;18.80;40.60;;;;;;4994036;28;19929;-59
2023/01/24 06:52:31;;;;;;;;;;;18.80;40.50;;;;;;4993491;28;19969;-59
2023/01/24 06:54:59;;;;;;;;;;;18.80;40.60;;;;;;4994563;28;19922;-58
2023/01/24 06:57:26;;;;;;;;;;;18.80;40.60;;;;;;4979783;28;20353;-59
2023/01/24 06:59:53;;;;;;;;;;;18.80;40.50;;;;;;4990996;28;19937;-59
2023/01/24 07:02:19;;;;;;;;;;;18.80;40.50;;;;;;5004900;28;19926;-58
2023/01/24 07:04:46;;;;;;;;;;;18.80;40.50;;;;;;4984601;28;19977;-59
2023/01/24 07:07:13;;;;;;;;;;;18.80;40.50;;;;;;5008091;28;19922;-58
2023/01/24 07:09:40;;;;;;;;;;;18.80;40.60;;;;;;4993987;28;20384;-59
2023/01/24 07:12:08;;;;;;;;;;;18.80;40.50;;;;;;4992148;28;19929;-58
2023/01/24 07:14:35;;;;;;;;;;;18.80;40.60;;;;;;4993554;28;19972;-59
2023/01/24 07:17:02;;;;;;;;;;;18.80;40.50;;;;;;4994760;28;19922;-59
2023/01/24 07:19:29;;;;;;;;;;;18.80;40.60;;;;;;4994861;28;19928;-59
2023/01/24 07:21:56;;;;;;;;;;;18.80;40.50;;;;;;4990729;28;19947;-59
2023/01/24 07:24:24;;;;;;;;;;;18.80;40.50;;;;;;4993438;28;19976;-59
2023/01/24 07:26:51;;;;;;;;;;;18.80;40.50;;;;;;4989411;28;19922;-58
2023/01/24 07:29:19;;;;;;;;;;;18.80;40.60;;;;;;4991884;28;19930;-59
2023/01/24 07:31:47;;;;;;;;;;;18.80;40.60;;;;;;4983326;28;19922;-59
2023/01/24 07:34:14;;;;;;;;;;;18.80;40.60;;;;;;5006625;28;20017;-59
2023/01/24 07:36:41;;;;;;;;;;;18.80;40.60;;;;;;5008219;28;19929;-58
2023/01/24 07:39:08;;;;;;;;;;;18.80;40.60;;;;;;5009646;28;20364;-59
2023/01/24 07:41:35;;;;;;;;;;;18.80;40.60;;;;;;4985348;28;19945;-59
2023/01/24 07:44:04;;;;;;;;;;;18.80;40.60;;;;;;4993873;28;19925;-59
2023/01/24 07:46:33;;;;;;;;;;;18.80;40.50;;;;;;5009168;28;20396;-59
2023/01/24 07:48:59;;;;;;;;;;;18.80;40.60;;;;;;5006212;28;19922;-60
2023/01/24 07:51:26;;;;;;;;;;;18.80;40.60;;;;;;5015597;28;19926;-63
2023/01/24 07:53:53;;;;;;;;;;;18.80;40.60;;;;;;5014110;28;19921;-60
2023/01/24 07:56:20;;;;;;;;;;;18.80;40.60;;;;;;5010269;28;19921;-59
2023/01/24 07:58:46;;;;;;;;;;;18.80;40.60;;;;;;5029191;28;19965;-60
2023/01/24 08:01:16;;;;;;;;;;;18.80;40.60;;;;;;5009759;28;19926;-60
2023/01/24 08:03:44;;;;;;;;;;;18.80;40.50;;;;;;4992154;28;20033;-60
2023/01/24 08:06:11;;;;;;;;;;;18.90;40.60;;;;;;5009642;28;19984;-60
2023/01/24 08:08:38;;;;;;;;;;;18.80;40.50;;;;;;5008476;28;20356;-60
2023/01/24 08:11:04;;;;;;;;;;;18.80;40.50;;;;;;5006473;28;19969;-61
2023/01/24 08:13:31;;;;;;;;;;;18.80;40.50;;;;;;5010210;28;19933;-59
2023/01/24 08:15:59;;;;;;;;;;;18.90;40.60;;;;;;5029695;28;20348;-59
2023/01/24 08:18:26;;;;;;;;;;;18.90;40.60;;;;;;5000225;28;19925;-63
2023/01/24 08:20:56;;;;;;;;;;;18.90;40.50;;;;;;4988547;28;19922;-59
2023/01/24 08:23:23;;;;;;;;;;;18.90;40.50;;;;;;5017152;28;19921;-59
2023/01/24 08:25:49;;;;;;;;;;;18.90;40.50;;;;;;4997194;28;19922;-59
2023/01/24 08:28:16;;;;;;;;;;;18.90;40.50;;;;;;5001539;28;19981;-56
2023/01/24 08:30:43;;;;;;;;;;;18.90;40.60;;;;;;4994679;28;19922;-58
2023/01/24 08:33:11;;;;;;;;;;;18.90;40.60;;;;;;5010699;28;19922;-57
2023/01/24 08:35:38;;;;;;;;;;;18.90;40.60;;;;;;4993825;28;20344;-58
2023/01/24 08:38:06;;;;;;;;;;;18.90;40.60;;;;;;5013110;28;19922;-58
2023/01/24 08:40:33;;;;;;;;;;;18.90;40.60;;;;;;4995299;28;20380;-60
2023/01/24 08:43:00;;;;;;;;;;;18.90;40.50;;;;;;5026858;28;19921;-59
2023/01/24 08:45:27;;;;;;;;;;;18.90;40.50;;;;;;5010795;28;19922;-60
2023/01/24 08:47:53;;;;;;;;;;;18.90;40.60;;;;;;4994217;28;19977;-59
2023/01/24 08:50:20;;;;;;;;;;;18.90;40.60;;;;;;4996560;28;19929;-59
2023/01/24 08:52:47;;;;;;;;;;;18.90;40.60;;;;;;4999040;28;19921;-58
2023/01/24 08:55:15;;;;;;;;;;;18.90;40.50;;;;;;5021523;28;19984;-59
2023/01/24 08:57:42;;;;;;;;;;;18.90;40.60;;;;;;5009404;28;20442;-60
2023/01/24 09:00:10;;;;;;;;;;;18.90;40.50;;;;;;5012423;28;19972;-60
2023/01/24 09:02:38;;;;;;;;;;;19.00;40.60;;;;;;4993815;28;19957;-59
2023/01/24 09:05:05;;;;;;;;;;;18.90;40.50;;;;;;4994104;28;19922;-58
2023/01/24 09:07:34;;;;;;;;;;;19.00;40.60;;;;;;4994613;28;19980;-59
2023/01/24 09:10:00;;;;;;;;;;;18.90;40.50;;;;;;5023245;28;19927;-59
2023/01/24 09:12:31;;;;;;;;;;;19.00;40.60;;;;;;5007716;28;19926;-59
2023/01/24 09:14:58;;;;;;;;;;;18.90;40.50;;;;;;4980448;28;19922;-59
2023/01/24 09:17:24;;;;;;;;;;;19.00;40.60;;;;;;4988129;28;20016;-59
2023/01/24 09:19:51;;;;;;;;;;;19.00;40.60;;;;;;5011286;28;19972;-59
2023/01/24 09:22:18;;;;;;;;;;;19.00;40.60;;;;;;5020244;28;19928;-60
2023/01/24 09:24:45;;;;;;;;;;;19.00;40.60;;;;;;4992467;28;19921;-60
2023/01/24 09:27:12;;;;;;;;;;;19.00;40.60;;;;;;5010133;28;19932;-60
2023/01/24 09:29:40;;;;;;;;;;;19.00;40.60;;;;;;5011248;28;19929;-59
2023/01/24 09:32:07;;;;;;;;;;;19.00;40.60;;;;;;4997303;28;19922;-59
2023/01/24 09:34:33;;;;;;;;;;;19.00;40.60;;;;;;5030299;28;19972;-60
2023/01/24 09:37:00;;;;;;;;;;;19.00;40.60;;;;;;5029227;28;19944;-59
2023/01/24 09:39:27;;;;;;;;;;;19.00;40.60;;;;;;5002944;28;19985;-58
2023/01/24 09:41:56;;;;;;;;;;;19.00;41.20;;;;;;5013863;28;19945;-59
2023/01/24 09:44:26;;;;;;;;;;;19.00;40.60;;;;;;5015225;28;19922;-59
2023/01/24 09:46:54;;;;;;;;;;;19.00;40.60;;;;;;4983460;28;19977;-59
2023/01/24 09:49:22;;;;;;;;;;;19.00;40.60;;;;;;5008270;28;19929;-59
2023/01/24 09:51:50;;;;;;;;;;;19.00;40.60;;;;;;4992526;28;19957;-59
2023/01/24 09:54:18;;;;;;;;;;;19.00;40.60;;;;;;5003519;28;19928;-58
2023/01/24 09:56:46;;;;;;;;;;;19.00;40.60;;;;;;4992982;28;19922;-58
2023/01/24 09:59:14;;;;;;;;;;;19.00;40.60;;;;;;4997111;28;19929;-58
2023/01/24 10:01:41;;;;;;;;;;;19.00;40.60;;;;;;5008236;28;20024;-59
2023/01/24 10:04:15;;;;;;;;;;;19.10;40.70;;;;;;5004451;28;19959;-59
2023/01/24 10:06:42;;;;;;;;;;;19.10;40.70;;;;;;5014515;28;19929;-58
2023/01/24 10:09:12;;;;;;;;;;;19.00;40.60;;;;;;4986725;28;19922;-58
2023/01/24 10:11:41;;;;;;;;;;;19.10;40.20;;;;;;5014909;28;19922;-58
2023/01/24 10:14:27;;;;;;;;;;;19.10;40.10;;;;;;5010795;28;20300;-59
2023/01/24 10:17:01;;;;;;;;;;;19.00;39.90;;;;;;5011324;28;19968;-59
2023/01/24 10:19:34;;;;;;;;;;;19.00;39.90;;;;;;5027526;28;19922;-59
2023/01/24 10:22:07;;;;;;;;;;;19.00;39.80;;;;;;4974920;28;19985;-58
2023/01/24 10:24:35;;;;;;;;;;;19.00;39.70;;;;;;5011369;28;19921;-59
2023/01/24 10:27:02;;;;;;;;;;;19.00;39.70;;;;;;5009108;28;19922;-59
2023/01/24 10:29:30;;;;;;;;;;;19.00;39.70;;;;;;4995633;28;19928;-58
2023/01/24 10:31:57;;;;;;;;;;;19.00;39.70;;;;;;5007964;28;19921;-59
2023/01/24 10:34:26;;;;;;;;;;;19.00;39.70;;;;;;5010509;28;19926;-59
2023/01/24 10:36:57;;;;;;;;;;;19.00;39.80;;;;;;5001759;28;19922;-59
2023/01/24 10:39:24;;;;;;;;;;;19.00;39.80;;;;;;4991451;28;19926;-59
2023/01/24 10:41:51;;;;;;;;;;;19.00;39.90;;;;;;4988164;28;19922;-60
2023/01/24 10:44:19;;;;;;;;;;;19.00;39.90;;;;;;4995235;28;19922;-59
2023/01/24 10:47:10;;;;;;;;;;;19.00;39.90;;;;;;5021286;28;19921;-60
2023/01/24 10:49:37;;;;;;;;;;;19.00;40.00;;;;;;5020181;28;19921;-60
2023/01/24 10:52:12;;;;;;;;;;;19.00;40.00;;;;;;4996334;28;19925;-60
2023/01/24 10:54:46;;;;;;;;;;;19.00;40.00;;;;;;5008400;28;19943;-60
2023/01/24 10:57:18;;;;;;;;;;;19.00;40.10;;;;;;5010234;28;19921;-60
2023/01/24 10:59:44;;;;;;;;;;;19.00;40.10;;;;;;5008251;28;19949;-61
2023/01/24 11:02:16;;;;;;;;;;;19.00;40.10;;;;;;4993688;28;19945;-60
2023/01/24 11:04:43;;;;;;;;;;;19.00;40.10;;;;;;4991000;28;19922;-60
2023/01/24 11:07:20;;;;;;;;;;;19.00;40.10;;;;;;5010574;28;19942;-60
2023/01/24 11:09:47;;;;;;;;;;;19.00;40.20;;;;;;5007267;28;19976;-59
2023/01/24 11:12:14;;;;;;;;;;;19.10;40.30;;;;;;5007984;28;19928;-59
2023/01/24 11:14:41;;;;;;;;;;;19.10;40.30;;;;;;5010570;28;19922;-59
2023/01/24 11:17:12;;;;;;;;;;;19.00;40.20;;;;;;5016281;28;19922;-59
2023/01/24 11:19:39;;;;;;;;;;;19.10;40.40;;;;;;5012905;28;19921;-60
2023/01/24 11:22:20;;;;;;;;;;;19.10;40.40;;;;;;5001848;28;19976;-59
2023/01/24 11:24:47;;;;;;;;;;;19.10;40.40;;;;;;4991711;28;20013;-59
2023/01/24 11:27:14;;;;;;;;;;;19.10;40.50;;;;;;4992758;28;19952;-59
2023/01/24 11:29:41;;;;;;;;;;;19.10;40.50;;;;;;5008124;28;19921;-58
2023/01/24 11:32:17;;;;;;;;;;;19.00;40.40;;;;;;5010267;28;19928;-58
2023/01/24 11:34:45;;;;;;;;;;;19.10;40.50;;;;;;5009525;28;19925;-59
2023/01/24 11:37:27;;;;;;;;;;;19.10;40.50;;;;;;4992756;28;20024;-59
2023/01/24 11:39:56;;;;;;;;;;;19.10;40.50;;;;;;5008299;28;20328;-60
2023/01/24 11:42:25;;;;;;;;;;;19.10;40.60;;;;;;5006823;28;19925;-60
2023/01/24 11:45:04;;;;;;;;;;;19.10;40.60;;;;;;4994792;28;19973;-60
2023/01/24 11:47:33;;;;;;;;;;;19.10;40.60;;;;;;5006916;28;19926;-60
2023/01/24 11:50:04;;;;;;;;;;;19.10;40.60;;;;;;4994326;28;19922;-60
2023/01/24 11:52:43;;;;;;;;;;;19.10;40.60;;;;;;4991110;28;19921;-60
2023/01/24 11:55:13;;;;;;;;;;;19.10;40.60;;;;;;4993847;28;19922;-61
2023/01/24 11:57:41;;;;;;;;;;;19.10;40.60;;;;;;4990854;28;19972;-59
2023/01/24 12:00:20;;;;;;;;;;;19.10;40.60;;;;;;5007332;28;19968;-60
2023/01/24 12:03:00;;;;;;;;;;;19.10;40.60;;;;;;4993759;28;19922;-59
2023/01/24 12:05:34;;;;;;;;;;;19.10;40.60;;;;;;5007142;28;19921;-60
2023/01/24 12:08:05;;;;;;;;;;;19.10;40.60;;;;;;4994009;28;20033;-59
2023/01/24 12:10:37;;;;;;;;;;;19.10;40.60;;;;;;4992311;28;19933;-59
2023/01/24 12:13:04;;;;;;;;;;;19.10;40.60;;;;;;5009879;28;19945;-60
2023/01/24 12:15:34;;;;;;;;;;;19.10;40.60;;;;;;4992001;28;19921;-60
2023/01/24 12:18:03;;;;;;;;;;;19.10;40.60;;;;;;5009021;28;19921;-59
2023/01/24 12:20:38;;;;;;;;;;;19.10;40.70;;;;;;4990236;28;19922;-59
2023/01/24 12:23:09;;;;;;;;;;;19.10;40.60;;;;;;4988196;28;19969;-58
2023/01/24 12:25:38;;;;;;;;;;;19.10;40.60;;;;;;4989417;28;19933;-59
2023/01/24 12:28:05;;;;;;;;;;;19.10;40.70;;;;;;4975001;28;19929;-59
2023/01/24 12:30:33;;;;;;;;;;;19.10;40.70;;;;;;4995603;28;19922;-58
2023/01/24 12:33:02;;;;;;;;;;;19.10;40.60;;;;;;5009170;28;20384;-59
2023/01/24 12:35:29;;;;;;;;;;;19.10;40.60;;;;;;4983466;28;19922;-58
2023/01/24 12:37:56;;;;;;;;;;;19.10;40.60;;;;;;4974609;28;19989;-59
2023/01/24 12:40:24;;;;;;;;;;;19.10;40.60;;;;;;4979649;28;20272;-59
2023/01/24 12:42:56;;;;;;;;;;;19.10;40.60;;;;;;5025968;28;19922;-58
2023/01/24 12:45:24;;;;;;;;;;;19.10;40.60;;;;;;4996723;28;19970;-59
2023/01/24 12:47:51;;;;;;;;;;;19.10;40.60;;;;;;4989586;28;19950;-59
2023/01/24 12:50:21;;;;;;;;;;;19.10;40.60;;;;;;4987549;28;20323;-59
2023/01/24 12:52:48;;;;;;;;;;;19.20;40.70;;;;;;4974433;28;19964;-59
2023/01/24 12:55:15;;;;;;;;;;;19.10;40.60;;;;;;4988505;28;19922;-58
2023/01/24 12:57:43;;;;;;;;;;;19.10;40.60;;;;;;4992687;28;19945;-59
2023/01/24 13:00:16;;;;;;;;;;;19.10;40.60;;;;;;4991313;28;19952;-58
2023/01/24 13:03:13;;;;;;;;;;;19.20;40.80;;;;;;4974749;28;19922;-58
2023/01/24 13:05:45;;;;;;;;;;;19.20;40.80;;;;;;4936873;29;20155;-59
2023/01/24 13:08:16;;;;;;;;;;;19.20;40.80;;;;;;4977887;28;19973;-59
2023/01/24 13:10:49;;;;;;;;;;;19.20;40.80;;;;;;4977168;28;19922;-58
2023/01/24 13:13:19;;;;;;;;;;;19.10;40.70;;;;;;4991287;28;19933;-58
2023/01/24 13:15:48;;;;;;;;;;;19.10;40.70;;;;;;5012061;28;20013;-58
2023/01/24 13:18:18;;;;;;;;;;;19.10;40.80;;;;;;5008244;28;19947;-59
2023/01/24 13:20:51;;;;;;;;;;;19.20;40.80;;;;;;5004268;28;19922;-59
2023/01/24 13:23:24;;;;;;;;;;;19.20;40.90;;;;;;4998634;28;19972;-59
2023/01/24 13:26:02;;;;;;;;;;;19.20;40.90;;;;;;5012422;28;19926;-59
2023/01/24 13:28:30;;;;;;;;;;;19.20;40.90;;;;;;4992759;28;19922;-59
2023/01/24 13:30:59;;;;;;;;;;;19.20;40.90;;;;;;4992978;28;19969;-59
2023/01/24 13:33:28;;;;;;;;;;;19.20;40.90;;;;;;4984829;28;19922;-66
2023/01/24 13:35:56;;;;;;;;;;;19.20;40.90;;;;;;5011825;28;19922;-59
2023/01/24 13:38:23;;;;;;;;;;;19.20;40.90;;;;;;5003105;28;19976;-59
2023/01/24 13:40:56;;;;;;;;;;;19.20;40.90;;;;;;4996889;28;19921;-59
2023/01/24 13:43:55;;;;;;;;;;;19.20;41.00;;;;;;4995881;28;19922;-59
2023/01/24 13:46:37;;;;;;;;;;;19.20;41.00;;;;;;4984277;28;19922;-60
2023/01/24 13:49:04;;;;;;;;;;;19.20;41.00;;;;;;5025880;28;19972;-60
2023/01/24 13:51:33;;;;;;;;;;;19.20;41.00;;;;;;5009643;28;20383;-60
2023/01/24 13:53:59;;;;;;;;;;;19.20;41.00;;;;;;4980192;28;19968;-60
2023/01/24 13:56:26;;;;;;;;;;;19.20;41.10;;;;;;4991645;28;19926;-59
2023/01/24 13:58:53;;;;;;;;;;;19.20;41.10;;;;;;4974776;28;19923;-60
2023/01/24 14:01:21;;;;;;;;;;;19.20;41.10;;;;;;4976664;28;20004;-59
2023/01/24 14:03:55;;;;;;;;;;;19.20;41.10;;;;;;5006407;28;20021;-60
2023/01/24 14:06:23;;;;;;;;;;;19.30;41.20;;;;;;4992568;28;20233;-60
2023/01/24 14:12:03;;;;;;;;;;;19.20;41.10;;;;;;5120568;27;19912;-59
2023/01/24 14:14:36;;;;;;;;;;;19.20;41.20;;;;;;5079586;28;20303;-59
2023/01/24 14:17:21;;;;;;;;;;;19.30;41.20;;;;;;5067864;28;19943;-59
2023/01/24 14:19:48;;;;;;;;;;;19.20;41.10;;;;;;5078054;28;20430;-59
2023/01/24 14:22:20;;;;;;;;;;;19.30;41.20;;;;;;5091193;28;20274;-59
2023/01/24 14:24:54;;;;;;;;;;;19.30;41.20;;;;;;5106477;28;19927;-58
2023/01/24 14:27:24;;;;;;;;;;;19.30;41.20;;;;;;5068136;28;19963;-58
2023/01/24 14:29:52;;;;;;;;;;;19.30;41.20;;;;;;5068746;28;19947;-59
2023/01/24 14:32:20;;;;;;;;;;;19.30;41.20;;;;;;5074056;28;19966;-58
2023/01/24 14:34:47;;;;;;;;;;;19.30;41.20;;;;;;5122534;28;19928;-59
2023/01/24 14:37:17;;;;;;;;;;;19.30;41.20;;;;;;5087570;28;19920;-60
2023/01/24 14:39:43;;;;;;;;;;;19.30;41.20;;;;;;5090938;28;19974;-60
2023/01/24 14:42:12;;;;;;;;;;;19.30;41.30;;;;;;5087065;28;19920;-60
2023/01/24 14:44:40;;;;;;;;;;;19.30;41.30;;;;;;5085966;28;19963;-59
2023/01/24 14:47:16;;;;;;;;;;;19.30;41.30;;;;;;5049192;28;19925;-59
2023/01/24 14:49:43;;;;;;;;;;;19.30;41.30;;;;;;5053531;28;19958;-60
2023/01/24 14:52:20;;;;;;;;;;;19.30;41.30;;;;;;5068416;28;19971;-59
2023/01/24 14:54:50;;;;;;;;;;;19.30;41.30;;;;;;5067306;28;19925;-59
2023/01/24 14:57:23;;;;;;;;;;;19.30;41.30;;;;;;5050546;28;20015;-59
2023/01/24 15:00:01;;;;;;;;;;;19.30;41.30;;;;;;5050633;28;19921;-59
2023/01/24 15:02:28;;;;;;;;;;;19.30;41.30;;;;;;5082911;28;19971;-60
2023/01/24 15:04:55;;;;;;;;;;;19.30;41.30;;;;;;5094190;28;20038;-59